| time (UTC) | temp C | wind direction | speed KPH | gust KPH | rain 1hr cm | rain 24hr cm | rain mn cm | humidity % | barometer mb |
| 20260507140522 | 21 | 232 | 8.0 | 17.7 | 0.00 | 4.65 | 4.09 | 93 | 1011.6 |
| 20260507140041 | 21 | 150 | 8.0 | 19.3 | 0.00 | 4.65 | 4.09 | 93 | 1011.7 |
| 20260507135522 | 21 | 181 | 6.4 | 19.3 | 0.00 | 4.65 | 4.09 | 93 | 1011.7 |
| 20260507135023 | 21 | 153 | 8.0 | 22.5 | 0.00 | 4.65 | 4.09 | 94 | 1011.5 |
| 20260507134544 | 21 | 248 | 8.0 | 22.5 | 0.00 | 4.65 | 4.09 | 94 | 1011.2 |
| 20260507134023 | 21 | 167 | 6.4 | 22.5 | 0.00 | 4.65 | 4.09 | 94 | 1011.1 |
| 20260507133522 | 20 | 182 | 8.0 | 22.5 | 0.00 | 4.65 | 4.09 | 94 | 1011.3 |
| 20260507133039 | 20 | 174 | 6.4 | 22.5 | 0.00 | 4.65 | 4.09 | 95 | 1011.4 |
| 20260507132521 | 20 | 189 | 8.0 | 22.5 | 0.00 | 4.65 | 4.09 | 95 | 1011.7 |
| 20260507132022 | 20 | 196 | 8.0 | 14.5 | 0.00 | 4.65 | 4.09 | 95 | 1011.7 |
| 20260507131535 | 20 | 135 | 4.8 | 14.5 | 0.00 | 4.65 | 4.09 | 95 | 1011.7 |
| 20260507131022 | 20 | 194 | 4.8 | 12.9 | 0.00 | 4.65 | 4.09 | 95 | 1011.7 |
| 20260507130523 | 20 | 245 | 6.4 | 16.1 | 0.00 | 4.65 | 4.09 | 95 | 1011.6 |
| 20260507130035 | 20 | 174 | 4.8 | 16.1 | 0.00 | 4.65 | 4.09 | 95 | 1011.2 |
| 20260507125522 | 20 | 180 | 6.4 | 14.5 | 0.00 | 4.65 | 4.09 | 95 | 1011.1 |
| 20260507125022 | 20 | 192 | 6.4 | 19.3 | 0.00 | 4.65 | 4.09 | 95 | 1011.3 |
| 20260507124537 | 20 | 210 | 3.2 | 19.3 | 0.00 | 4.65 | 4.09 | 95 | 1011.2 |
| 20260507124024 | 20 | 171 | 4.8 | 19.3 | 0.00 | 4.65 | 4.09 | 95 | 1011.4 |
| 20260507123522 | 20 | 161 | 1.6 | 8.0 | 0.00 | 4.65 | 4.09 | 95 | 1011.5 |
| 20260507123036 | 20 | 203 | 3.2 | 9.7 | 0.00 | 4.65 | 4.09 | 95 | 1011.6 |
| 20260507122522 | 20 | 185 | 4.8 | 9.7 | 0.00 | 4.65 | 4.09 | 95 | 1011.7 |
| 20260507122022 | 20 | 213 | 3.2 | 9.7 | 0.00 | 4.65 | 4.09 | 95 | 1011.6 |
| 20260507121540 | 19 | 160 | 4.8 | 12.9 | 0.00 | 4.65 | 4.09 | 95 | 1011.7 |
| 20260507121022 | 19 | 202 | 4.8 | 12.9 | 0.00 | 4.65 | 4.09 | 95 | 1011.8 |
| 20260507120522 | 19 | 170 | 4.8 | 11.3 | 0.00 | 4.65 | 4.09 | 95 | 1011.9 |
| 20260507120039 | 19 | 214 | 1.6 | 8.0 | 0.00 | 4.65 | 4.09 | 95 | 1012.0 |
| 20260507115522 | 19 | 181 | 1.6 | 4.8 | 0.00 | 4.65 | 4.09 | 95 | 1012.1 |
| 20260507115022 | 19 | 0 | 1.6 | 3.2 | 0.00 | 4.65 | 4.09 | 95 | 1012.4 |
| 20260507114538 | 19 | 0 | 0.0 | 3.2 | 0.00 | 4.65 | 4.09 | 95 | 1012.4 |
| 20260507114021 | 19 | 165 | 0.0 | 3.2 | 0.00 | 4.65 | 4.09 | 95 | 1012.6 |
| 20260507113524 | 19 | 0 | 0.0 | 0.0 | 0.03 | 4.65 | 4.09 | 95 | 1012.4 |
| 20260507113038 | 19 | 0 | 0.0 | 1.6 | 0.03 | 4.65 | 4.09 | 95 | 1012.3 |
| 20260507112525 | 19 | 0 | 0.0 | 3.2 | 0.03 | 4.65 | 4.09 | 95 | 1012.2 |
| 20260507112023 | 19 | 0 | 0.0 | 3.2 | 0.03 | 4.65 | 4.09 | 94 | 1011.9 |
| 20260507111543 | 19 | 5 | 0.0 | 3.2 | 0.03 | 4.65 | 4.09 | 94 | 1012.0 |
| 20260507111026 | 19 | 0 | 0.0 | 4.8 | 0.03 | 4.65 | 4.09 | 94 | 1012.0 |
| 20260507110525 | 19 | 0 | 0.0 | 4.8 | 0.03 | 4.65 | 4.09 | 94 | 1011.6 |
| 20260507110044 | 19 | 23 | 0.0 | 4.8 | 0.03 | 4.65 | 4.09 | 94 | 1011.1 |
| 20260507105525 | 19 | 264 | 0.0 | 4.8 | 0.03 | 4.65 | 4.09 | 94 | 1011.9 |
| 20260507105026 | 19 | 0 | 1.6 | 4.8 | 0.03 | 4.65 | 4.09 | 94 | 1012.2 |
| 20260507104539 | 19 | 264 | 0.0 | 4.8 | 0.03 | 4.65 | 4.09 | 94 | 1012.1 |
| 20260507104025 | 19 | 0 | 0.0 | 4.8 | 0.03 | 4.65 | 4.09 | 94 | 1011.9 |
| 20260507103527 | 19 | 0 | 0.0 | 6.4 | 0.00 | 4.62 | 4.06 | 94 | 1012.0 |
| 20260507103041 | 19 | 237 | 1.6 | 8.0 | 0.00 | 4.62 | 4.06 | 94 | 1012.1 |
| 20260507102525 | 19 | 200 | 1.6 | 8.0 | 0.00 | 4.62 | 4.06 | 94 | 1011.9 |
| 20260507102028 | 19 | 217 | 1.6 | 8.0 | 0.00 | 4.62 | 4.06 | 94 | 1011.9 |
| 20260507101546 | 19 | 174 | 1.6 | 8.0 | 0.00 | 4.62 | 4.06 | 94 | 1011.6 |
| 20260507101026 | 19 | 202 | 1.6 | 8.0 | 0.00 | 4.62 | 4.06 | 94 | 1011.4 |
| 20260507100527 | 19 | 212 | 0.0 | 4.8 | 0.00 | 4.62 | 4.06 | 94 | 1011.1 |
| 20260507100042 | 19 | 0 | 0.0 | 6.4 | 0.00 | 4.62 | 4.06 | 94 | 1010.8 |
| 20260507095526 | 19 | 355 | 0.0 | 9.7 | 0.03 | 4.62 | 4.06 | 94 | 1011.3 |
| 20260507095028 | 19 | 0 | 1.6 | 9.7 | 0.03 | 4.62 | 4.06 | 94 | 1011.9 |
| 20260507094544 | 19 | 239 | 1.6 | 8.0 | 0.05 | 4.62 | 4.06 | 94 | 1011.7 |
| 20260507094026 | 19 | 201 | 1.6 | 8.0 | 0.05 | 4.62 | 4.06 | 94 | 1012.0 |
| 20260507093527 | 19 | 202 | 1.6 | 8.0 | 0.05 | 4.62 | 4.06 | 94 | 1012.4 |
| 20260507093045 | 19 | 214 | 1.6 | 4.8 | 0.05 | 4.62 | 4.06 | 94 | 1012.4 |
| 20260507092526 | 19 | 0 | 0.0 | 4.8 | 0.05 | 4.62 | 4.06 | 94 | 1012.4 |
| 20260507092026 | 19 | 260 | 0.0 | 4.8 | 0.05 | 4.62 | 4.06 | 94 | 1013.0 |
| 20260507091541 | 19 | 0 | 1.6 | 4.8 | 0.05 | 4.62 | 4.06 | 94 | 1012.8 |
| 20260507091027 | 19 | 0 | 1.6 | 8.0 | 0.05 | 4.62 | 4.06 | 94 | 1012.9 |
| 20260507090530 | 19 | 0 | 0.0 | 8.0 | 0.05 | 4.62 | 4.06 | 94 | 1013.1 |
| 20260507090038 | 19 | 0 | 1.6 | 8.0 | 0.03 | 4.60 | 4.04 | 94 | 1013.1 |
| 20260507085525 | 19 | 181 | 1.6 | 16.1 | 0.05 | 4.60 | 4.04 | 94 | 1013.0 |
| 20260507085026 | 19 | 238 | 3.2 | 16.1 | 0.08 | 4.60 | 4.04 | 94 | 1012.9 |
| 20260507084539 | 19 | 266 | 1.6 | 12.9 | 0.10 | 4.57 | 4.01 | 94 | 1012.9 |
| 20260507084025 | 19 | 187 | 3.2 | 12.9 | 0.13 | 4.57 | 4.01 | 94 | 1013.0 |
| 20260507083529 | 19 | 221 | 4.8 | 14.5 | 0.15 | 4.57 | 4.01 | 94 | 1013.1 |
| 20260507083039 | 19 | 220 | 3.2 | 14.5 | 0.20 | 4.57 | 4.01 | 94 | 1012.5 |
| 20260507082527 | 19 | 166 | 1.6 | 8.0 | 0.48 | 4.57 | 4.01 | 94 | 1012.5 |
| 20260507082025 | 19 | 217 | 3.2 | 9.7 | 0.79 | 4.57 | 4.01 | 94 | 1012.3 |
| 20260507081539 | 19 | 207 | 3.2 | 9.7 | 0.86 | 4.57 | 4.01 | 94 | 1012.5 |
| 20260507081025 | 19 | 192 | 0.0 | 8.0 | 1.04 | 4.57 | 4.01 | 94 | 1012.4 |
| 20260507080521 | 19 | 193 | 1.6 | 8.0 | 1.30 | 4.57 | 4.01 | 94 | 1012.4 |
| 20260507080044 | 19 | 0 | 1.6 | 6.4 | 1.91 | 4.57 | 4.01 | 94 | 1012.3 |
| 20260507075522 | 19 | 345 | 1.6 | 6.4 | 2.21 | 4.55 | 3.99 | 93 | 1012.1 |
| 20260507075024 | 19 | 224 | 1.6 | 6.4 | 2.72 | 4.52 | 3.96 | 93 | 1012.9 |
| 20260507074540 | 19 | 348 | 1.6 | 6.4 | 3.05 | 4.47 | 3.91 | 93 | 1013.1 |
| 20260507074021 | 19 | 0 | 0.0 | 4.8 | 3.07 | 4.45 | 3.89 | 93 | 1013.1 |
| 20260507073522 | 19 | 0 | 0.0 | 11.3 | 3.10 | 4.42 | 3.86 | 93 | 1013.6 |
| 20260507073039 | 19 | 314 | 1.6 | 11.3 | 3.05 | 4.34 | 3.78 | 93 | 1014.6 |
| 20260507072522 | 19 | 162 | 4.8 | 9.7 | 2.72 | 4.01 | 3.45 | 93 | 1015.9 |
| 20260507072022 | 19 | 287 | 1.6 | 6.4 | 2.51 | 3.78 | 3.23 | 93 | 1015.2 |
| 20260507071539 | 19 | 5 | 1.6 | 4.8 | 2.44 | 3.68 | 3.12 | 93 | 1014.4 |
| 20260507071021 | 19 | 0 | 0.0 | 9.7 | 2.26 | 3.48 | 2.92 | 92 | 1013.8 |
| 20260507070528 | 19 | 0 | 0.0 | 14.5 | 2.01 | 3.23 | 2.64 | 92 | 1013.6 |
| 20260507070038 | 19 | 11 | 6.4 | 19.3 | 1.40 | 2.59 | 2.03 | 92 | 1014.1 |
| 20260507065525 | 19 | 355 | 9.7 | 24.1 | 1.12 | 2.29 | 1.73 | 92 | 1014.1 |
| 20260507065024 | 20 | 346 | 11.3 | 27.4 | 0.53 | 1.70 | 1.14 | 92 | 1014.2 |
| 20260507064538 | 20 | 346 | 14.5 | 27.4 | 0.28 | 1.42 | 0.86 | 92 | 1013.8 |
| 20260507064022 | 20 | 45 | 12.9 | 25.7 | 0.20 | 1.32 | 0.79 | 92 | 1012.9 |
| 20260507063524 | 20 | 11 | 9.7 | 16.1 | 0.18 | 1.30 | 0.74 | 92 | 1013.2 |
| 20260507063044 | 20 | 343 | 4.8 | 12.9 | 0.20 | 1.30 | 0.74 | 92 | 1012.8 |
| 20260507062522 | 20 | 355 | 3.2 | 6.4 | 0.18 | 1.27 | 0.71 | 92 | 1012.7 |
| 20260507062022 | 20 | 355 | 1.6 | 4.8 | 0.20 | 1.27 | 0.71 | 92 | 1012.9 |
| 20260507061541 | 20 | 101 | 0.0 | 4.8 | 0.20 | 1.24 | 0.69 | 92 | 1012.3 |
| 20260507061025 | 20 | 0 | 0.0 | 4.8 | 0.20 | 1.22 | 0.66 | 92 | 1012.7 |
| 20260507060523 | 20 | 0 | 0.0 | 3.2 | 0.25 | 1.22 | 0.66 | 92 | 1013.0 |
| 20260507060050 | 20 | 0 | 0.0 | 4.8 | 0.33 | 1.19 | 0.64 | 92 | 1012.8 |
| 20260507055525 | 20 | 0 | 0.0 | 6.4 | 0.38 | 1.17 | 0.61 | 92 | 1013.1 |
| 20260507055021 | 20 | 206 | 3.2 | 6.4 | 0.36 | 1.14 | 0.58 | 92 | 1013.3 |
| 20260507054546 | 20 | 0 | 0.0 | 3.2 | 0.36 | 1.14 | 0.58 | 92 | 1013.0 |
| 20260507054022 | 20 | 0 | 0.0 | 6.4 | 0.33 | 1.12 | 0.56 | 91 | 1013.1 |
| 20260507053522 | 20 | 0 | 1.6 | 6.4 | 0.36 | 1.12 | 0.56 | 91 | 1013.8 |
| 20260507053041 | 20 | 355 | 1.6 | 4.8 | 0.33 | 1.09 | 0.53 | 91 | 1014.1 |
| 20260507052524 | 20 | 0 | 0.0 | 4.8 | 0.36 | 1.09 | 0.53 | 91 | 1014.1 |
| 20260507052022 | 20 | 12 | 1.6 | 12.9 | 0.38 | 1.07 | 0.51 | 91 | 1014.4 |
| 20260507051538 | 20 | 0 | 1.6 | 16.1 | 0.41 | 1.04 | 0.48 | 91 | 1014.3 |
| 20260507051020 | 20 | 360 | 4.8 | 16.1 | 0.43 | 1.02 | 0.46 | 91 | 1014.9 |
| 20260507050523 | 20 | 329 | 9.7 | 16.1 | 0.38 | 0.97 | 0.41 | 91 | 1015.2 |
| 20260507050043 | 20 | 336 | 1.6 | 11.3 | 0.28 | 0.84 | 0.28 | 91 | 1015.5 |
| 20260507045524 | 20 | 329 | 3.2 | 11.3 | 0.25 | 0.79 | 0.23 | 91 | 1014.9 |
| 20260507045024 | 20 | 302 | 3.2 | 6.4 | 0.25 | 0.79 | 0.23 | 91 | 1015.0 |
| 20260507044553 | 20 | 0 | 0.0 | 4.8 | 0.30 | 0.79 | 0.23 | 91 | 1014.4 |
| 20260507044021 | 20 | 202 | 1.6 | 4.8 | 0.33 | 0.76 | 0.20 | 90 | 1014.2 |
| 20260507043521 | 20 | 195 | 0.0 | 8.0 | 0.38 | 0.76 | 0.20 | 90 | 1014.0 |
| 20260507043038 | 20 | 9 | 0.0 | 11.3 | 0.41 | 0.76 | 0.20 | 90 | 1014.0 |
| 20260507042522 | 21 | 206 | 0.0 | 12.9 | 0.41 | 0.71 | 0.15 | 90 | 1014.6 |
| 20260507042021 | 21 | 170 | 6.4 | 12.9 | 0.43 | 0.69 | 0.13 | 90 | 1015.5 |
| 20260507041538 | 21 | 156 | 3.2 | 8.0 | 0.38 | 0.61 | 0.05 | 90 | 1015.3 |
| 20260507041021 | 21 | 163 | 0.0 | 3.2 | 0.38 | 0.58 | 0.03 | 90 | 1015.2 |
| 20260507040522 | 21 | 0 | 0.0 | 4.8 | 0.41 | 0.58 | 0.03 | 89 | 1015.0 |
| 20260507040039 | 21 | 0 | 1.6 | 4.8 | 0.41 | 0.56 | 0.00 | 89 | 1015.0 |
| 20260507035522 | 21 | 0 | 0.0 | 3.2 | 0.41 | 0.53 | 0.53 | 88 | 1014.5 |
| 20260507035024 | 21 | 180 | 0.0 | 8.0 | 0.41 | 0.51 | 0.51 | 88 | 1015.3 |
| 20260507034541 | 21 | 264 | 0.0 | 8.0 | 0.38 | 0.48 | 0.48 | 88 | 1015.2 |
| 20260507034024 | 21 | 325 | 1.6 | 8.0 | 0.30 | 0.41 | 0.41 | 88 | 1015.4 |
| 20260507033524 | 21 | 0 | 0.0 | 6.4 | 0.30 | 0.38 | 0.38 | 88 | 1015.4 |
| 20260507033043 | 21 | 0 | 1.6 | 4.8 | 0.25 | 0.33 | 0.33 | 87 | 1015.6 |
| 20260507032523 | 21 | 193 | 0.0 | 3.2 | 0.25 | 0.30 | 0.30 | 87 | 1015.4 |
| 20260507032025 | 21 | 0 | 0.0 | 3.2 | 0.20 | 0.25 | 0.25 | 87 | 1015.2 |
| 20260507031539 | 21 | 0 | 0.0 | 4.8 | 0.18 | 0.23 | 0.23 | 86 | 1014.9 |
| 20260507031022 | 21 | 0 | 0.0 | 4.8 | 0.15 | 0.20 | 0.20 | 86 | 1015.1 |
| 20260507030527 | 21 | 0 | 0.0 | 4.8 | 0.13 | 0.18 | 0.18 | 86 | 1015.0 |
| 20260507030038 | 21 | 0 | 0.0 | 4.8 | 0.10 | 0.15 | 0.15 | 85 | 1014.9 |
| 20260507025521 | 21 | 327 | 0.0 | 3.2 | 0.08 | 0.13 | 0.13 | 85 | 1014.4 |
| 20260507025021 | 22 | 337 | 0.0 | 3.2 | 0.05 | 0.10 | 0.10 | 84 | 1014.3 |
| 20260507024542 | 22 | 0 | 0.0 | 3.2 | 0.08 | 0.10 | 0.10 | 85 | 1014.1 |
| 20260507024021 | 22 | 0 | 0.0 | 3.2 | 0.08 | 0.10 | 0.10 | 84 | 1013.8 |
| 20260507023525 | 22 | 0 | 0.0 | 1.6 | 0.05 | 0.08 | 0.08 | 83 | 1013.6 |
| 20260507023038 | 22 | 0 | 0.0 | 1.6 | 0.03 | 0.05 | 0.05 | 84 | 1013.6 |
| 20260507022527 | 22 | 0 | 0.0 | 3.2 | 0.03 | 0.05 | 0.05 | 82 | 1013.3 |
| 20260507022026 | 22 | 0 | 0.0 | 3.2 | 0.03 | 0.05 | 0.05 | 82 | 1013.3 |
| 20260507021543 | 22 | 0 | 0.0 | 3.2 | 0.03 | 0.05 | 0.05 | 81 | 1013.2 |
| 20260507021024 | 22 | 0 | 0.0 | 1.6 | 0.05 | 0.05 | 0.05 | 80 | 1013.4 |
| 20260507020524 | 22 | 0 | 0.0 | 3.2 | 0.05 | 0.05 | 0.05 | 80 | 1013.2 |
| 20260507020047 | 22 | 0 | 0.0 | 3.2 | 0.05 | 0.05 | 0.05 | 79 | 1013.3 |
| 20260507015527 | 22 | 0 | 0.0 | 3.2 | 0.05 | 0.05 | 0.05 | 79 | 1013.4 |
| 20260507015024 | 22 | 0 | 0.0 | 3.2 | 0.05 | 0.05 | 0.05 | 81 | 1013.7 |
| 20260507014538 | 22 | 0 | 0.0 | 4.8 | 0.03 | 0.03 | 0.03 | 81 | 1013.7 |
| 20260507014027 | 22 | 0 | 0.0 | 6.4 | 0.03 | 0.03 | 0.03 | 80 | 1013.3 |
| 20260507013524 | 22 | 0 | 1.6 | 6.4 | 0.03 | 0.03 | 0.03 | 80 | 1013.3 |
| 20260507013045 | 23 | 158 | 1.6 | 4.8 | 0.03 | 0.03 | 0.03 | 78 | 1013.0 |
| 20260507012521 | 23 | 115 | 0.0 | 3.2 | 0.03 | 0.03 | 0.03 | 75 | 1013.1 |
| 20260507012025 | 24 | 0 | 0.0 | 4.8 | 0.03 | 0.03 | 0.03 | 74 | 1013.1 |
| 20260507011541 | 24 | 0 | 0.0 | 4.8 | 0.03 | 0.03 | 0.03 | 72 | 1012.9 |
| 20260507011021 | 24 | 0 | 0.0 | 4.8 | 0.00 | 0.00 | 0.00 | 71 | 1013.2 |
| 20260507010521 | 25 | 0 | 0.0 | 4.8 | 0.00 | 0.00 | 0.00 | 71 | 1013.7 |
| 20260507010043 | 25 | 0 | 0.0 | 4.8 | 0.00 | 0.00 | 0.00 | 70 | 1013.9 |
| 20260507005522 | 25 | 0 | 1.6 | 6.4 | 0.00 | 0.00 | 0.00 | 69 | 1014.0 |
| 20260507005025 | 25 | 0 | 1.6 | 6.4 | 0.00 | 0.00 | 0.00 | 68 | 1013.7 |
| 20260507004536 | 26 | 169 | 0.0 | 8.0 | 0.00 | 0.00 | 0.00 | 66 | 1013.5 |
| 20260507004023 | 26 | 174 | 3.2 | 9.7 | 0.00 | 0.00 | 0.00 | 66 | 1013.4 |
| 20260507003524 | 26 | 166 | 3.2 | 9.7 | 0.00 | 0.00 | 0.00 | 65 | 1013.4 |
| 20260507003042 | 26 | 173 | 3.2 | 12.9 | 0.00 | 0.00 | 0.00 | 65 | 1013.6 |
| 20260507002521 | 26 | 170 | 4.8 | 12.9 | 0.00 | 0.00 | 0.00 | 65 | 1013.6 |
| 20260507002024 | 26 | 164 | 4.8 | 12.9 | 0.00 | 0.00 | 0.00 | 65 | 1013.5 |
| 20260507001542 | 26 | 179 | 1.6 | 6.4 | 0.00 | 0.00 | 0.00 | 66 | 1013.3 |
| 20260507001023 | 26 | 0 | 1.6 | 11.3 | 0.00 | 0.00 | 0.00 | 65 | 1013.3 |
| 20260507000524 | 26 | 167 | 3.2 | 11.3 | 0.00 | 0.00 | 0.00 | 65 | 1013.4 |
| 20260507000040 | 26 | 190 | 3.2 | 9.7 | 0.00 | 0.00 | 0.00 | 65 | 1013.2 |
| 20260506235524 | 26 | 0 | 1.6 | 8.0 | 0.00 | 0.00 | 0.00 | 65 | 1013.2 |
| 20260506235023 | 26 | 181 | 1.6 | 8.0 | 0.00 | 0.00 | 0.00 | 65 | 1013.3 |
| 20260506234541 | 26 | 184 | 0.0 | 9.7 | 0.00 | 0.00 | 0.00 | 65 | 1013.3 |
| 20260506234024 | 26 | 212 | 1.6 | 9.7 | 0.00 | 0.00 | 0.00 | 64 | 1013.2 |
| 20260506233524 | 26 | 162 | 4.8 | 11.3 | 0.00 | 0.00 | 0.00 | 64 | 1013.3 |
| 20260506233038 | 26 | 192 | 4.8 | 12.9 | 0.00 | 0.00 | 0.00 | 64 | 1013.1 |
| 20260506232523 | 26 | 165 | 4.8 | 12.9 | 0.00 | 0.00 | 0.00 | 64 | 1013.1 |
| 20260506232023 | 27 | 154 | 3.2 | 11.3 | 0.00 | 0.00 | 0.00 | 63 | 1013.0 |
| 20260506231540 | 27 | 171 | 4.8 | 11.3 | 0.00 | 0.00 | 0.00 | 63 | 1013.3 |
| 20260506231023 | 27 | 164 | 3.2 | 14.5 | 0.00 | 0.00 | 0.00 | 62 | 1013.7 |
| 20260506230524 | 27 | 184 | 3.2 | 14.5 | 0.00 | 0.00 | 0.00 | 62 | 1013.8 |
| 20260506230043 | 27 | 0 | 3.2 | 9.7 | 0.00 | 0.00 | 0.00 | 61 | 1013.7 |
| 20260506225559 | 27 | 0 | 1.6 | 8.0 | 0.00 | 0.00 | 0.00 | 61 | 1013.8 |
| 20260506225024 | 27 | 207 | 3.2 | 16.1 | 0.00 | 0.00 | 0.00 | 61 | 1013.7 |
| 20260506224554 | 27 | 225 | 3.2 | 16.1 | 0.00 | 0.00 | 0.00 | 61 | 1013.8 |
| 20260506224024 | 27 | 222 | 6.4 | 14.5 | 0.00 | 0.00 | 0.00 | 61 | 1013.5 |
| 20260506223523 | 27 | 204 | 3.2 | 14.5 | 0.00 | 0.00 | 0.00 | 62 | 1013.5 |
| 20260506223038 | 27 | 173 | 4.8 | 12.9 | 0.00 | 0.00 | 0.00 | 61 | 1013.6 |
| 20260506222526 | 27 | 188 | 4.8 | 14.5 | 0.00 | 0.00 | 0.00 | 60 | 1013.5 |
| 20260506222024 | 27 | 178 | 6.4 | 14.5 | 0.00 | 0.00 | 0.00 | 60 | 1013.3 |
| 20260506221539 | 28 | 203 | 4.8 | 11.3 | 0.00 | 0.00 | 0.00 | 60 | 1013.1 |
| 20260506221021 | 28 | 182 | 4.8 | 17.7 | 0.00 | 0.00 | 0.00 | 61 | 1013.2 |
| 20260506220521 | 28 | 188 | 6.4 | 17.7 | 0.00 | 0.00 | 0.00 | 60 | 1013.3 |
| 20260506220039 | 28 | 259 | 4.8 | 14.5 | 0.00 | 0.00 | 0.00 | 60 | 1013.4 |
| 20260506215523 | 28 | 165 | 3.2 | 14.5 | 0.00 | 0.00 | 0.00 | 59 | 1013.2 |
| 20260506215023 | 28 | 204 | 3.2 | 14.5 | 0.00 | 0.00 | 0.00 | 59 | 1013.5 |
| 20260506214542 | 28 | 167 | 4.8 | 16.1 | 0.00 | 0.00 | 0.00 | 59 | 1013.4 |
| 20260506214022 | 28 | 208 | 6.4 | 16.1 | 0.00 | 0.00 | 0.00 | 58 | 1013.4 |
| 20260506213523 | 28 | 167 | 4.8 | 12.9 | 0.00 | 0.00 | 0.00 | 57 | 1013.5 |
| 20260506213044 | 28 | 178 | 4.8 | 14.5 | 0.00 | 0.00 | 0.00 | 57 | 1013.5 |
| 20260506212523 | 29 | 167 | 4.8 | 14.5 | 0.00 | 0.00 | 0.00 | 56 | 1013.6 |
| 20260506212023 | 30 | 234 | 4.8 | 14.5 | 0.00 | 0.00 | 0.00 | 57 | 1013.6 |
| 20260506211539 | 30 | 35 | 4.8 | 16.1 | 0.00 | 0.00 | 0.00 | 54 | 1013.7 |
| 20260506211024 | 30 | 215 | 4.8 | 16.1 | 0.00 | 0.00 | 0.00 | 55 | 1013.9 |
| 20260506210524 | 30 | 182 | 4.8 | 14.5 | 0.00 | 0.00 | 0.00 | 53 | 1013.9 |
| 20260506210040 | 30 | 201 | 4.8 | 16.1 | 0.00 | 0.00 | 0.00 | 55 | 1013.9 |
| 20260506205523 | 30 | 187 | 8.0 | 16.1 | 0.00 | 0.00 | 0.00 | 53 | 1014.1 |
| 20260506205024 | 30 | 198 | 6.4 | 16.1 | 0.00 | 0.00 | 0.00 | 54 | 1014.2 |
| 20260506204538 | 29 | 291 | 4.8 | 24.1 | 0.00 | 0.00 | 0.00 | 57 | 1014.4 |
| 20260506204021 | 29 | 319 | 6.4 | 24.1 | 0.00 | 0.00 | 0.00 | 56 | 1014.3 |
| 20260506203523 | 28 | 165 | 6.4 | 17.7 | 0.00 | 0.00 | 0.00 | 56 | 1014.3 |
| 20260506203040 | 28 | 211 | 6.4 | 20.9 | 0.00 | 0.00 | 0.00 | 56 | 1014.4 |
| 20260506202523 | 29 | 195 | 8.0 | 20.9 | 0.00 | 0.00 | 0.00 | 54 | 1014.5 |
| 20260506202024 | 30 | 223 | 6.4 | 16.1 | 0.00 | 0.00 | 0.00 | 54 | 1014.6 |
| 20260506201538 | 29 | 300 | 4.8 | 16.1 | 0.00 | 0.00 | 0.00 | 54 | 1014.7 |
| 20260506201025 | 29 | 196 | 6.4 | 16.1 | 0.00 | 0.00 | 0.00 | 53 | 1014.8 |
| 20260506200523 | 29 | 199 | 4.8 | 12.9 | 0.00 | 0.00 | 0.00 | 54 | 1015.0 |
| 20260506200037 | 28 | 207 | 6.4 | 20.9 | 0.00 | 0.00 | 0.00 | 52 | 1015.1 |
| 20260506195523 | 29 | 208 | 9.7 | 20.9 | 0.00 | 0.00 | 0.00 | 51 | 1015.2 |
| 20260506195027 | 29 | 194 | 8.0 | 17.7 | 0.00 | 0.00 | 0.00 | 51 | 1015.2 |
| 20260506194543 | 29 | 186 | 4.8 | 17.7 | 0.00 | 0.00 | 0.00 | 50 | 1015.2 |
| 20260506194022 | 30 | 177 | 4.8 | 16.1 | 0.00 | 0.00 | 0.00 | 50 | 1015.3 |
| 20260506193523 | 30 | 0 | 4.8 | 16.1 | 0.00 | 0.00 | 0.00 | 51 | 1015.4 |
| 20260506193039 | 30 | 200 | 4.8 | 22.5 | 0.00 | 0.00 | 0.00 | 49 | 1015.4 |
| 20260506192524 | 30 | 225 | 9.7 | 22.5 | 0.00 | 0.00 | 0.00 | 48 | 1015.3 |
| 20260506192023 | 30 | 325 | 4.8 | 16.1 | 0.00 | 0.00 | 0.00 | 49 | 1015.3 |
| 20260506191539 | 30 | 156 | 4.8 | 16.1 | 0.00 | 0.00 | 0.00 | 48 | 1015.3 |
| 20260506191023 | 30 | 258 | 4.8 | 16.1 | 0.00 | 0.00 | 0.00 | 51 | 1015.3 |
| 20260506190527 | 30 | 230 | 3.2 | 17.7 | 0.00 | 0.00 | 0.00 | 51 | 1015.4 |
| 20260506190039 | 30 | 157 | 6.4 | 22.5 | 0.00 | 0.00 | 0.00 | 51 | 1015.3 |
| 20260506185522 | 30 | 211 | 9.7 | 22.5 | 0.00 | 0.00 | 0.00 | 51 | 1015.4 |
| 20260506185023 | 30 | 182 | 4.8 | 16.1 | 0.00 | 0.00 | 0.00 | 50 | 1015.4 |
| 20260506184537 | 29 | 242 | 6.4 | 17.7 | 0.00 | 0.00 | 0.00 | 49 | 1015.5 |
| 20260506184023 | 29 | 200 | 3.2 | 17.7 | 0.00 | 0.00 | 0.00 | 49 | 1015.6 |
| 20260506183524 | 29 | 148 | 6.4 | 16.1 | 0.00 | 0.00 | 0.00 | 51 | 1015.6 |
| 20260506183039 | 29 | 193 | 6.4 | 19.3 | 0.00 | 0.00 | 0.00 | 47 | 1015.7 |
| 20260506182522 | 29 | 269 | 6.4 | 19.3 | 0.00 | 0.00 | 0.00 | 50 | 1015.8 |
| 20260506182022 | 29 | 169 | 4.8 | 14.5 | 0.00 | 0.00 | 0.00 | 50 | 1015.7 |
| 20260506181544 | 29 | 201 | 3.2 | 17.7 | 0.00 | 0.00 | 0.00 | 49 | 1015.8 |
| 20260506181023 | 28 | 269 | 6.4 | 17.7 | 0.00 | 0.00 | 0.00 | 51 | 1015.8 |
| 20260506180525 | 28 | 220 | 4.8 | 19.3 | 0.00 | 0.00 | 0.00 | 49 | 1015.8 |
| 20260506180043 | 28 | 271 | 4.8 | 19.3 | 0.00 | 0.00 | 0.00 | 46 | 1015.7 |
| 20260506175523 | 28 | 156 | 6.4 | 16.1 | 0.00 | 0.00 | 0.00 | 56 | 1015.8 |
| 20260506175022 | 28 | 299 | 4.8 | 25.7 | 0.00 | 0.00 | 0.00 | 54 | 1015.8 |
| 20260506174536 | 28 | 177 | 9.7 | 25.7 | 0.00 | 0.00 | 0.00 | 56 | 1016.0 |
| 20260506174022 | 28 | 165 | 8.0 | 17.7 | 0.00 | 0.00 | 0.00 | 53 | 1016.1 |
| 20260506173523 | 28 | 252 | 4.8 | 16.1 | 0.00 | 0.00 | 0.00 | 53 | 1016.2 |
| 20260506173041 | 28 | 238 | 4.8 | 16.1 | 0.00 | 0.00 | 0.00 | 53 | 1016.3 |
| 20260506172523 | 28 | 186 | 4.8 | 11.3 | 0.00 | 0.00 | 0.00 | 51 | 1016.2 |
| 20260506172023 | 28 | 355 | 4.8 | 12.9 | 0.00 | 0.00 | 0.00 | 54 | 1016.4 |
| 20260506171553 | 28 | 185 | 4.8 | 17.7 | 0.00 | 0.00 | 0.00 | 56 | 1016.3 |
| 20260506171023 | 27 | 223 | 6.4 | 17.7 | 0.00 | 0.00 | 0.00 | 56 | 1016.3 |
| 20260506170522 | 28 | 216 | 4.8 | 19.3 | 0.00 | 0.00 | 0.00 | 56 | 1016.4 |
| 20260506170043 | 27 | 198 | 6.4 | 19.3 | 0.00 | 0.00 | 0.00 | 55 | 1016.4 |
| 20260506165523 | 27 | 169 | 8.0 | 19.3 | 0.00 | 0.00 | 0.00 | 53 | 1016.6 |
| 20260506165023 | 27 | 247 | 6.4 | 14.5 | 0.00 | 0.00 | 0.00 | 58 | 1016.6 |
| 20260506164539 | 27 | 188 | 4.8 | 12.9 | 0.00 | 0.00 | 0.00 | 55 | 1016.7 |
| 20260506164022 | 26 | 199 | 3.2 | 17.7 | 0.00 | 0.00 | 0.00 | 56 | 1016.8 |
| 20260506163522 | 26 | 202 | 8.0 | 17.7 | 0.00 | 0.00 | 0.00 | 56 | 1016.8 |
| 20260506163043 | 26 | 178 | 4.8 | 17.7 | 0.00 | 0.00 | 0.00 | 56 | 1016.9 |
| 20260506162524 | 26 | 189 | 8.0 | 17.7 | 0.00 | 0.00 | 0.00 | 57 | 1017.0 |
| 20260506162025 | 26 | 194 | 3.2 | 17.7 | 0.00 | 0.00 | 0.00 | 57 | 1017.0 |
| 20260506161538 | 26 | 159 | 8.0 | 17.7 | 0.00 | 0.00 | 0.00 | 58 | 1017.0 |
| 20260506161024 | 25 | 173 | 4.8 | 14.5 | 0.00 | 0.00 | 0.00 | 62 | 1017.0 |
| 20260506160523 | 25 | 236 | 4.8 | 14.5 | 0.00 | 0.00 | 0.00 | 64 | 1017.2 |
| 20260506160039 | 24 | 200 | 6.4 | 14.5 | 0.00 | 0.00 | 0.00 | 64 | 1017.1 |
| 20260506155523 | 24 | 192 | 6.4 | 14.5 | 0.00 | 0.00 | 0.00 | 63 | 1017.2 |
| 20260506155023 | 25 | 223 | 6.4 | 14.5 | 0.00 | 0.00 | 0.00 | 62 | 1017.3 |
| 20260506154601 | 25 | 234 | 6.4 | 16.1 | 0.00 | 0.00 | 0.00 | 60 | 1017.3 |
| 20260506154025 | 25 | 235 | 6.4 | 19.3 | 0.00 | 0.00 | 0.00 | 60 | 1017.3 |
| 20260506153521 | 25 | 201 | 6.4 | 22.5 | 0.00 | 0.00 | 0.00 | 59 | 1017.3 |
| 20260506153041 | 25 | 217 | 9.7 | 22.5 | 0.00 | 0.00 | 0.00 | 60 | 1017.3 |
| 20260506152524 | 25 | 168 | 8.0 | 22.5 | 0.00 | 0.00 | 0.00 | 64 | 1017.2 |
| 20260506152025 | 25 | 202 | 8.0 | 22.5 | 0.00 | 0.00 | 0.00 | 62 | 1017.3 |
| 20260506151540 | 25 | 194 | 6.4 | 14.5 | 0.00 | 0.00 | 0.00 | 63 | 1017.3 |
| 20260506151024 | 24 | 207 | 4.8 | 17.7 | 0.00 | 0.00 | 0.00 | 67 | 1017.2 |
| 20260506150524 | 24 | 234 | 6.4 | 17.7 | 0.00 | 0.00 | 0.00 | 68 | 1017.3 |
| 20260506150039 | 23 | 170 | 6.4 | 14.5 | 0.00 | 0.00 | 0.00 | 69 | 1017.1 |
| 20260506145526 | 23 | 202 | 6.4 | 14.5 | 0.00 | 0.00 | 0.00 | 70 | 1017.1 |
| 20260506145023 | 23 | 195 | 6.4 | 14.5 | 0.00 | 0.00 | 0.00 | 71 | 1017.1 |
| 20260506144546 | 22 | 193 | 4.8 | 14.5 | 0.00 | 0.00 | 0.00 | 72 | 1017.1 |
| 20260506144023 | 22 | 218 | 6.4 | 16.1 | 0.00 | 0.00 | 0.00 | 73 | 1017.0 |
| 20260506143521 | 22 | 223 | 6.4 | 16.1 | 0.00 | 0.00 | 0.00 | 74 | 1017.0 |
| 20260506143038 | 21 | 159 | 3.2 | 8.0 | 0.00 | 0.00 | 0.00 | 79 | 1016.7 |
| 20260506142523 | 21 | 0 | 0.0 | 8.0 | 0.00 | 0.00 | 0.00 | 81 | 1016.7 |
| 20260506142023 | 21 | 213 | 1.6 | 6.4 | 0.00 | 0.00 | 0.00 | 82 | 1016.7 |
| 20260506141539 | 20 | 232 | 1.6 | 12.9 | 0.00 | 0.00 | 0.00 | 82 | 1016.6 |
| 20260506141023 | 20 | 163 | 4.8 | 12.9 | 0.00 | 0.00 | 0.00 | 82 | 1016.6 |